Tampa, Florida
Traffic Map
Current Weather Conditions
Tampa, Florida
Broken Clouds Thunderstorm
Broken Clouds
30°
Feels Like: 34°
Wind Chill: 30° Ceiling: 11000
Heat Index: 34° Visibility: 10mi
Dew Point: 23° Wind: 7mph
Humidity: 67% Direction: 290° (WNW)
Pressure: 30.06in Gusts: 0mph
Raw Report DataKTPA 252253Z 29006KT 10SM VCTS FEW015 SCT032CB BKN110 30/23 A3006 RMK AO2 LTG DSNT N SLP177 TSE40 CB N AND DSNT SE T03000233
Traffic Incident Summary
Active as of:
Severity:
Category:
InformationThere was an issue retrieving the traffic information for this location. Please try a different location or try again shortly.
Advertisements
Track Severe Weather on mobile